Slide Mountain Weather observations

Data are for 10 minute period ending at time listed.
 Day   Time   Solar   Ave.   Ave.  Ave.  Vector  Max.    Baro.  
  of    of     Rad.   Air    Rel.  Wind   Wind   Wind   Press.  
Year   Day            Temp.  Hum.  Speed  Dir.   Gust           
2016   (PST)  Kw/m2    F      %     mph   deg.    mph     mb.   
-----------------------------------------------------------------
 209   16:30   0.43   72.0    20   18.0   260     26.6    722.0 
 209   16:40   0.40   72.1    20   16.6   258     24.7    721.9 
 209   16:50   0.37   72.6    20   13.9   260     24.0    721.9 
 209   17:00   0.34   71.9    22   17.2   268     25.6    721.8 
 209   17:10   0.32   71.1    22   17.0   265     28.1    721.8 
 209   17:20   0.29   70.2    22   18.5   267     25.7    721.7 
 209   17:30   0.26   70.4    22   17.2   270     27.3    721.7 
 209   17:40   0.23   69.9    23   18.0   268     27.8    721.7 
 209   17:50   0.21   69.5    23   18.7   270     27.9    721.7 
 209   18:00   0.18   69.1    24   18.4   272     27.4    721.7 
 209   18:10   0.15   68.4    25   19.0   274     27.0    721.8 
 209   18:20   0.13   67.9    24   18.7   268     27.0    721.9 
 209   18:30   0.10   67.3    25   18.2   265     27.8    721.9 
 209   18:40   0.07   66.7    26   18.2   264     24.7    722.0 
 209   18:50   0.05   66.1    27   18.7   266     27.7    722.0 
 209   19:00   0.03   65.3    28   19.2   263     26.5    722.0 
 209   19:10   0.01   64.5    30   19.7   264     29.0    721.9 
 209   19:20   0.00   64.1    30   18.2   264     27.1    722.0 
 209   19:30   0.00   63.9    31   18.6   265     26.1    722.1 
 209   19:40   0.00   63.9    31   16.3   265     23.5    722.2 
 209   19:50   0.00   63.8    31   18.1   264     24.2    722.2 
 209   20:00   0.00   63.9    31   19.2   263     28.5    722.2 
 209   20:10   0.00   64.0    30   17.2   258     24.9    722.3 
 209   20:20   0.00   63.8    30   17.6   262     24.5    722.4 
 209   20:30   0.00   64.2    28   15.7   264     24.0    722.4 
 209   20:40   0.00   64.6    28   16.9   268     25.8    722.4 
 209   20:50   0.00   64.7    27   17.3   265     26.7    722.5 
 209   21:00   0.00   64.3    28   15.4   265     22.8    722.6 
 209   21:10   0.00   64.3    28   14.5   259     23.8    722.6 
 209   21:20   0.00   64.5    27   13.8   262     20.5    722.7 
 209   21:30   0.00   64.3    28   12.7   264     21.1    722.6 
 209   21:40   0.00   64.2    27   12.2   265     18.0    722.6 
 209   21:50   0.00   64.1    27   11.9   268     18.1    722.6 
 209   22:00   0.00   64.2    28   13.4   270     19.2    722.5 
 209   22:10   0.00   63.7    31   14.4   273     22.0    722.5 
 209   22:20   0.00   63.4    32   14.7   276     20.6    722.5 
 209   22:30   0.00   63.3    32   14.8   277     21.3    722.6 
 209   22:40   0.00   63.4    31   14.1   273     20.3    722.6 
 209   22:50   0.00   63.7    29   14.3   269     20.8    722.6 
 209   23:00   0.00   63.9    29   13.5   270     20.0    722.6 
 209   23:10   0.00   63.5    30   13.1   271     19.6    722.5 
 209   23:20   0.00   63.4    30   13.5   268     19.2    722.5 
 209   23:30   0.00   63.2    30   12.7   276     18.1    722.4 
 209   23:40   0.00   63.0    31   13.0   277     19.0    722.4 
 209   23:50   0.00   63.3    30   11.8   273     18.2    722.3 
 210    0:00   0.00   63.4    29   11.5   271     17.1    722.3 
 210    0:10   0.00   63.4    30   10.9   268     17.2    722.3 
 210    0:20   0.00   63.5    30    9.5   268     17.0    722.4 
 210    0:30   0.00   63.4    31    9.9   274     17.0    722.4 
 210    0:40   0.00   63.3    31   10.8   282     16.5    722.3 
 210    0:50   0.00   63.4    32   10.9   282     17.9    722.3 
 210    1:00   0.00   63.8    30   10.8   280     17.0    722.4 
 210    1:10   0.00   63.9    31   10.2   277     17.5    722.4 
 210    1:20   0.00   63.6    32    7.5   282     13.5    722.4 
 210    1:30   0.00   63.8    30    7.7   284     15.6    722.4 
 210    1:40   0.00   63.4    32    7.3   293     13.7    722.3 
 210    1:50   0.00   62.9    34    7.4   286     12.0    722.3 
 210    2:00   0.00   62.3    36    5.3   301      9.8    722.3 
 210    2:10   0.00   62.0    38    7.0   308     11.7    722.3 
 210    2:20   0.00   62.1    38    6.0   310     10.2    722.3 
 210    2:30   0.00   62.3    38    6.3   310     10.4    722.3 
 210    2:40   0.00   62.5    37    5.9   313     10.9    722.3 
 210    2:50   0.00   62.6    37    5.9   320     11.1    722.3 
 210    3:00   0.00   62.7    37    5.3   323      8.7    722.3 
 210    3:10   0.00   62.9    36    3.9   313      7.8    722.3 
 210    3:20   0.00   62.7    36    0.4   325      1.3    722.4 
 210    3:30   0.00   62.6    37    0.9   332      3.7    722.3 
 210    3:40   0.00   62.4    37    0.4   328      1.9    722.3 
 210    3:50   0.00   62.5    36    0.1   327      0.3    722.3 
 210    4:00   0.00   62.9    35    0.1   323      0.1    722.3 
 210    4:10   0.00   62.8    35    0.1   171      0.1    722.2 
 210    4:20   0.00   62.6    36    1.4   138      4.7    722.2 
 210    4:30   0.00   62.5    35    3.5   134      6.4    722.2 
 210    4:40   0.00   62.9    33    4.1   127      7.1    722.3 
 210    4:50   0.00   62.6    32    1.8   123      3.3    722.3 
 210    5:00   0.01   62.9    32    0.5   123      2.1    722.4 
 210    5:10   0.01   63.4    31    0.1   123      0.1    722.4 
 210    5:20   0.03   63.8    30    0.1   123      0.1    722.4 
 210    5:30   0.05   64.3    30    0.1   123      0.1    722.5 
 210    5:40   0.08   65.1    29    0.1   123      0.1    722.5 
 210    5:50   0.10   65.5    29    0.1   123      0.1    722.6 
 210    6:00   0.13   65.7    30    0.1   123      0.1    722.6 
 210    6:10   0.15   66.0    29    0.1   123      0.3    722.6 
 210    6:20   0.18   66.0    30    0.1   122      1.0    722.7 
 210    6:30   0.21   67.1    30    0.0   122      0.3    722.8 
 210    6:40   0.23   68.4    29    0.0   138      0.1    722.8 
 210    6:50   0.26   69.0    28    0.0   148      0.1    722.8 
 210    7:00   0.29   69.1    28    0.2   132      1.2    722.8 
 210    7:10   0.32   68.2    30    1.7   116      5.3    722.9 
 210    7:20   0.34   68.5    30    1.1   110      3.4    722.9 
 210    7:30   0.37   68.7    30    2.7   106      5.6    723.0 
 210    7:40   0.40   67.7    31    3.0   101      7.3    723.0 
 210    7:50   0.43   68.4    30    1.0    84      6.5    723.0 
 210    8:00   0.46   70.3    29    0.2   114      1.6    723.0 
 210    8:10   0.48   69.5    30    1.7    90      8.7    723.0 
 210    8:20   0.51   68.4    31    4.7    92     11.6    723.0 
 210    8:30   0.53   68.5    30    1.9   117      6.5    722.9 
 210    8:40   0.56   68.4    30    4.8   106     14.6    722.9 
 210    8:50   0.58   69.6    29    4.1   113     11.3    723.0 
 210    9:00   0.60   69.3    29    5.4   113     12.7    723.0 
 210    9:10   0.62   70.3    28    5.9   124     12.8    723.0 
 210    9:20   0.65   70.4    28    8.1   124     16.2    723.0 
 210    9:30   0.67   70.0    27    7.5   118     14.6    723.0 
 210    9:40   0.69   68.8    28    8.1   116     14.9    723.0 
 210    9:50   0.70   69.7    28    6.7   123     12.5    723.1 
 210   10:00   0.72   71.0    27    8.2   118     16.5    723.1 
 210   10:10   0.74   69.5    27    8.9   110     14.1    723.1 
 210   10:20   0.75   69.6    27    8.1   115     15.7    723.1 
 210   10:30   0.76   70.0    25    9.3   117     16.7    723.1 
 210   10:40   0.78   69.8    24    9.9   114     18.5    723.1 
 210   10:50   0.79   70.3    23    9.4   111     19.8    723.1 
 210   11:00   0.80   70.4    23    9.7   106     16.3    723.0 
 210   11:10   0.81   71.4    22   10.8   112     20.1    723.0 
 210   11:20   0.81   71.8    22    7.9   110     14.8    723.0 
 210   11:30   0.82   71.9    22    7.5   109     17.5    723.0 
 210   11:40   0.82   71.4    22    9.7   106     21.3    722.9 
 210   11:50   0.83   71.7    21   13.4   110     22.4    722.8 
 210   12:00   0.83   71.8    22   12.5   110     25.5    722.8 
 210   12:10   0.86   73.0    21   10.9   126     22.6    722.8 
 210   12:20   0.90   72.7    22   10.9   123     19.8    722.8 
 210   12:30   0.83   72.2    22    7.2   129     14.9    722.8 
 210   12:40   0.85   73.4    22    5.4   126     11.9    722.7 
 210   12:50   0.91   75.0    21    5.1   142     10.9    722.7 
 210   13:00   0.95   76.4    20    3.7   149     11.1    722.7 
 210   13:10   0.92   78.2    20    2.3   198      8.9    722.7 
 210   13:20   0.90   78.7    19    2.4   169      6.5    722.6 
 210   13:30   0.91   78.3    19    7.3   233     16.6    722.5 
 210   13:40   0.59   75.8    21    9.0   248     19.4    722.4 
 210   13:50   0.72   74.7    22    7.4   261     13.0    722.4 
 210   14:00   0.79   77.5    21    4.6   265     10.6    722.4 
 210   14:10   0.66   78.6    20    4.3   248     14.0    722.3 
 210   14:20   0.68   76.4    21    6.7   268     11.8    722.3 
 210   14:30   0.62   75.8    21    4.1   257     15.6    722.2 
 210   14:40   0.60   77.3    21    3.4   270     13.9    722.2 
 210   14:50   0.60   77.7    21    3.1   251      9.8    722.1 
 210   15:00   0.68   77.7    21    3.5   236     11.4    722.0 
 210   15:10   0.71   77.1    21    6.1   280     15.2    722.0 
 210   15:20   0.66   77.5    21    4.3   262     11.0    722.0 
 210   15:30   0.57   78.9    20    6.8   272     15.8    722.0 
 210   15:40   0.35   75.8    23    8.3   260     15.3    721.9 
 210   15:50   0.36   73.6    25    8.7   252     15.5    721.9 
 210   16:00   0.52   75.3    24    8.8   257     15.2    721.9 
 210   16:10   0.47   75.7    24    8.5   253     13.9    721.9 
 210   16:20   0.46   76.0    25    8.5   252     15.8    721.9 

Return to Slide Mountain graphs page.


Western Regional Climate Center,wrcc@dri.edu